Time;durP1;ratioP1;P1;durP2;ratioP2;P2;SDS_P1;SDS_P2;PMS_P1;PMS_P2;Temp;Humidity;BMP_temperature;BMP_pressure;BME280_temperature;BME280_humidity;BME280_pressure;Samples;Min_cycle;Max_cycle;Signal;HPM_P1;HPM_P2
2023/03/12 00:00:02;;;;;;;24.08;10.63;;;;;;;0.13;78.17;99234.69;343819;28;1090;-79
2023/03/12 00:00:15;;;;;;;24.63;10.65;;;;;;;0.11;77.55;99232.13;342534;28;1188;-79
2023/03/12 00:00:27;;;;;;;23.40;10.70;;;;;;;0.12;78.58;99232.97;343099;28;1100;-79
2023/03/12 00:00:40;;;;;;;21.42;10.27;;;;;;;0.15;78.23;99235.53;343519;28;1061;-79
2023/03/12 00:00:52;;;;;;;22.33;10.57;;;;;;;0.16;78.30;99232.13;344825;28;1292;-79
2023/03/12 00:01:18;;;;;;;25.70;10.55;;;;;;;0.17;77.82;99237.25;344895;28;1104;-79
2023/03/12 00:01:32;;;;;;;26.40;10.63;;;;;;;0.18;77.73;99238.09;343697;28;1584;-79
2023/03/12 00:01:44;;;;;;;23.90;10.27;;;;;;;0.18;77.49;99230.41;343750;28;1227;-79
2023/03/12 00:01:58;;;;;;;22.80;10.02;;;;;;;0.19;77.25;99234.69;345242;28;1133;-79
2023/03/12 00:02:10;;;;;;;22.60;10.13;;;;;;;0.18;77.87;99238.09;346611;28;1109;-79
2023/03/12 00:02:22;;;;;;;23.73;10.25;;;;;;;0.17;77.82;99231.28;346191;28;1695;-79
2023/03/12 00:02:34;;;;;;;22.67;10.18;;;;;;;0.18;77.89;99233.84;346573;28;1250;-80
2023/03/12 00:02:46;;;;;;;21.58;10.45;;;;;;;0.19;77.36;99238.09;346353;28;1099;-80
2023/03/12 00:02:58;;;;;;;17.60;9.77;;;;;;;0.21;77.61;99240.66;346478;28;1178;-80
2023/03/12 00:03:10;;;;;;;16.83;8.95;;;;;;;0.23;77.55;99240.69;346456;28;1355;-79
2023/03/12 00:03:25;;;;;;;16.10;8.23;;;;;;;0.24;77.52;99238.09;346089;28;1815;-79
2023/03/12 00:03:39;;;;;;;18.00;8.70;;;;;;;0.23;77.22;99241.53;345037;28;1275;-79
2023/03/12 00:03:51;;;;;;;18.08;8.88;;;;;;;0.21;76.92;99235.56;346081;28;1071;-79
2023/03/12 00:04:03;;;;;;;16.40;8.48;;;;;;;0.21;77.38;99233.00;346524;28;1106;-80
2023/03/12 00:04:18;;;;;;;18.02;8.95;;;;;;;0.21;77.07;99235.56;346599;28;1034;-79
2023/03/12 00:04:31;;;;;;;19.05;9.23;;;;;;;0.20;76.78;99241.50;346130;28;1571;-79
2023/03/12 00:04:43;;;;;;;18.90;8.90;;;;;;;0.21;77.20;99238.09;346527;28;1082;-80
2023/03/12 00:04:57;;;;;;;16.85;8.65;;;;;;;0.19;77.36;99237.25;343932;28;1189;-80
2023/03/12 00:05:09;;;;;;;17.58;8.77;;;;;;;0.19;76.99;99238.09;345051;28;1186;-79
2023/03/12 00:05:24;;;;;;;16.23;8.85;;;;;;;0.18;78.06;99235.53;344903;28;1170;-79
2023/03/12 00:05:38;;;;;;;15.95;8.65;;;;;;;0.18;77.72;99235.53;345665;28;861;-79
2023/03/12 00:05:49;;;;;;;16.63;8.30;;;;;;;0.19;78.25;99237.25;346101;28;1081;-79
2023/03/12 00:06:02;;;;;;;18.35;8.70;;;;;;;0.19;77.68;99229.59;346109;28;1164;-79
2023/03/12 00:06:21;;;;;;;16.70;8.60;;;;;;;0.21;77.46;99235.56;343583;28;1039;-79
2023/03/12 00:06:33;;;;;;;16.90;8.68;;;;;;;0.21;78.16;99233.00;343482;28;1413;-79
2023/03/12 00:06:45;;;;;;;17.35;8.70;;;;;;;0.19;78.08;99232.97;344890;28;1181;-79
2023/03/12 00:06:57;;;;;;;16.02;8.52;;;;;;;0.20;78.31;99236.38;345818;28;1035;-80
2023/03/12 00:07:09;;;;;;;15.88;8.32;;;;;;;0.21;77.57;99232.16;346626;28;1769;-80
2023/03/12 00:07:21;;;;;;;15.63;8.43;;;;;;;0.19;77.98;99234.69;346527;28;1159;-80
2023/03/12 00:07:35;;;;;;;16.63;8.50;;;;;;;0.19;77.34;99234.69;344966;28;1749;-80
2023/03/12 00:07:48;;;;;;;15.68;8.10;;;;;;;0.18;77.48;99235.53;344094;28;1186;-79
2023/03/12 00:08:00;;;;;;;16.00;8.02;;;;;;;0.15;77.55;99227.88;343889;28;886;-79
2023/03/12 00:08:12;;;;;;;15.98;7.97;;;;;;;0.12;77.90;99227.84;343516;28;1241;-80
2023/03/12 00:08:24;;;;;;;16.00;7.90;;;;;;;0.13;77.87;99232.13;345109;28;1041;-80
2023/03/12 00:08:36;;;;;;;15.70;8.00;;;;;;;0.14;77.50;99231.25;344875;28;1219;-79
2023/03/12 00:08:48;;;;;;;14.60;7.93;;;;;;;0.12;77.71;99231.28;344227;28;1754;-80
2023/03/12 00:09:00;;;;;;;14.15;7.80;;;;;;;0.12;78.03;99232.97;344806;28;1047;-80
2023/03/12 00:09:12;;;;;;;13.37;7.70;;;;;;;0.11;77.89;99236.38;344800;28;1054;-79
2023/03/12 00:09:24;;;;;;;13.60;7.63;;;;;;;0.11;78.05;99223.59;344842;28;1506;-79
2023/03/12 00:09:38;;;;;;;12.85;7.57;;;;;;;0.14;77.96;99236.38;344987;28;1038;-79
2023/03/12 00:09:50;;;;;;;14.55;7.68;;;;;;;0.13;77.45;99238.09;345120;28;1476;-80
2023/03/12 00:10:04;;;;;;;15.25;7.75;;;;;;;0.14;78.08;99231.25;344965;28;1161;-82
2023/03/12 00:10:17;;;;;;;14.40;7.57;;;;;;;0.17;77.96;99231.28;345279;28;1179;-82
2023/03/12 00:10:29;;;;;;;12.88;6.97;;;;;;;0.18;77.74;99235.53;346594;28;1291;-82
2023/03/12 00:10:41;;;;;;;12.20;6.75;;;;;;;0.16;78.21;99232.13;346537;28;1038;-82
2023/03/12 00:10:53;;;;;;;13.48;7.03;;;;;;;0.14;78.32;99231.25;346839;28;1440;-82
2023/03/12 00:11:13;;;;;;;12.30;6.95;;;;;;;0.14;77.85;99237.25;347424;28;1158;-82
2023/03/12 00:11:25;;;;;;;14.00;7.15;;;;;;;0.13;77.58;99232.13;345253;28;1111;-82
2023/03/12 00:11:37;;;;;;;13.90;6.90;;;;;;;0.16;78.03;99232.13;345267;28;1069;-82
2023/03/12 00:11:49;;;;;;;13.02;6.90;;;;;;;0.17;77.76;99231.28;345923;28;1168;-82
2023/03/12 00:12:01;;;;;;;13.32;6.63;;;;;;;0.18;78.02;99235.53;345130;28;1408;-82
2023/03/12 00:12:13;;;;;;;11.55;6.57;;;;;;;0.19;78.00;99230.44;343802;28;1095;-82
2023/03/12 00:12:25;;;;;;;12.60;6.43;;;;;;;0.21;77.50;99233.00;343910;28;1059;-82
2023/03/12 00:12:37;;;;;;;12.25;6.40;;;;;;;0.22;77.31;99229.56;343024;28;1179;-82
2023/03/12 00:12:49;;;;;;;12.63;6.80;;;;;;;0.22;77.54;99232.13;344676;28;1270;-82
2023/03/12 00:13:01;;;;;;;10.50;6.70;;;;;;;0.23;77.36;99231.28;345087;28;1154;-82
2023/03/12 00:13:13;;;;;;;10.80;6.68;;;;;;;0.24;77.37;99234.69;345362;28;1475;-83
2023/03/12 00:13:25;;;;;;;12.07;6.63;;;;;;;0.21;77.80;99233.00;345567;28;810;-82
2023/03/12 00:13:37;;;;;;;13.30;6.88;;;;;;;0.19;77.87;99232.97;347459;28;1514;-82
2023/03/12 00:13:51;;;;;;;13.88;7.07;;;;;;;0.21;77.40;99233.00;345940;28;1296;-82
2023/03/12 00:14:03;;;;;;;14.60;7.35;;;;;;;0.18;78.06;99232.97;345925;28;1092;-82
2023/03/12 00:14:15;;;;;;;14.95;7.40;;;;;;;0.18;77.41;99232.97;344793;28;1473;-82
2023/03/12 00:14:27;;;;;;;15.23;7.55;;;;;;;0.16;77.48;99229.56;345127;28;1214;-82
2023/03/12 00:14:38;;;;;;;12.93;7.28;;;;;;;0.17;77.29;99236.41;345586;28;906;-82
2023/03/12 00:14:50;;;;;;;13.43;7.25;;;;;;;0.16;77.71;99234.66;345458;28;1113;-82
2023/03/12 00:15:06;;;;;;;13.55;6.93;;;;;;;0.14;77.52;99231.25;345317;28;1079;-82
2023/03/12 00:15:18;;;;;;;13.13;6.97;;;;;;;0.14;77.13;99233.81;344974;28;1641;-82
2023/03/12 00:15:30;;;;;;;13.10;7.25;;;;;;;0.14;77.62;99233.81;346674;28;1074;-82
2023/03/12 00:15:42;;;;;;;13.57;7.53;;;;;;;0.14;77.22;99231.25;346908;28;990;-82
2023/03/12 00:15:54;;;;;;;14.02;7.30;;;;;;;0.16;77.54;99234.66;345470;28;1115;-82
2023/03/12 00:16:12;;;;;;;12.27;6.93;;;;;;;0.16;77.42;99225.31;346119;28;1107;-82
2023/03/12 00:16:27;;;;;;;10.20;6.88;;;;;;;0.15;76.97;99232.97;345865;28;1505;-79
2023/03/12 00:16:39;;;;;;;11.68;6.90;;;;;;;0.15;76.85;99232.97;346915;28;1100;-80
2023/03/12 00:16:51;;;;;;;13.20;7.10;;;;;;;0.12;77.56;99228.72;346800;28;1169;-80
2023/03/12 00:17:03;;;;;;;13.02;6.90;;;;;;;0.11;77.42;99232.13;346617;28;1191;-79
2023/03/12 00:17:17;;;;;;;10.23;6.22;;;;;;;0.12;77.50;99231.28;346506;28;1039;-79
2023/03/12 00:17:29;;;;;;;10.43;6.53;;;;;;;0.15;77.40;99233.81;346081;28;1191;-80
2023/03/12 00:17:41;;;;;;;11.70;6.75;;;;;;;0.14;77.62;99236.38;345462;28;1241;-80
2023/03/12 00:17:53;;;;;;;11.88;6.78;;;;;;;0.14;76.96;99229.59;345211;28;1079;-80
2023/03/12 00:18:05;;;;;;;10.68;6.55;;;;;;;0.13;77.36;99230.41;345133;28;1090;-80
2023/03/12 00:18:17;;;;;;;9.48;6.47;;;;;;;0.14;77.17;99233.81;343896;28;1063;-79
2023/03/12 00:18:29;;;;;;;9.18;6.38;;;;;;;0.14;76.99;99231.25;343998;28;1540;-80
2023/03/12 00:18:42;;;;;;;9.75;6.50;;;;;;;0.15;77.60;99232.97;342609;28;1024;-80
2023/03/12 00:18:54;;;;;;;11.23;6.60;;;;;;;0.16;77.50;99235.56;343834;28;1373;-80
2023/03/12 00:19:06;;;;;;;10.93;6.35;;;;;;;0.17;77.65;99236.41;342156;28;1101;-79
2023/03/12 00:19:18;;;;;;;10.18;5.95;;;;;;;0.19;77.53;99234.69;342028;28;1252;-80
2023/03/12 00:19:30;;;;;;;9.95;5.80;;;;;;;0.17;77.83;99231.28;342749;28;1121;-80
2023/03/12 00:19:44;;;;;;;11.07;6.28;;;;;;;0.19;77.20;99234.69;344045;28;1091;-80
2023/03/12 00:19:56;;;;;;;12.25;6.45;;;;;;;0.18;77.97;99228.75;345144;28;1107;-80
2023/03/12 00:20:13;;;;;;;12.98;6.30;;;;;;;0.18;77.69;99238.09;345188;28;1127;-80
2023/03/12 00:20:25;;;;;;;12.90;6.40;;;;;;;0.16;77.59;99235.56;346624;28;1093;-80
2023/03/12 00:20:37;;;;;;;11.20;6.43;;;;;;;0.14;77.45;99233.81;346023;28;1582;-80
2023/03/12 00:20:54;;;;;;;11.95;6.50;;;;;;;0.16;77.29;99234.66;345690;28;1302;-80
2023/03/12 00:21:06;;;;;;;12.13;6.63;;;;;;;0.18;78.18;99238.09;344041;28;1047;-79
2023/03/12 00:21:20;;;;;;;11.68;6.57;;;;;;;0.18;77.67;99232.97;344122;28;1195;-79
2023/03/12 00:21:32;;;;;;;12.70;6.43;;;;;;;0.19;77.36;99229.59;343958;28;1053;-79
2023/03/12 00:21:44;;;;;;;14.13;6.30;;;;;;;0.19;77.64;99229.59;344393;28;1195;-79
2023/03/12 00:21:56;;;;;;;13.45;6.40;;;;;;;0.21;77.18;99225.31;346307;28;1086;-79
2023/03/12 00:22:08;;;;;;;12.88;6.53;;;;;;;0.20;77.16;99236.38;346312;28;1066;-80
2023/03/12 00:22:24;;;;;;;11.13;6.72;;;;;;;0.19;77.34;99227.88;346517;28;1091;-80
2023/03/12 00:22:36;;;;;;;11.80;6.70;;;;;;;0.17;78.01;99231.28;346656;28;1196;-80
2023/03/12 00:22:51;;;;;;;12.18;6.50;;;;;;;0.17;77.87;99231.28;346133;28;1555;-80
2023/03/12 00:23:03;;;;;;;10.40;6.40;;;;;;;0.14;77.88;99232.13;347385;28;1042;-80
2023/03/12 00:23:17;;;;;;;10.27;6.45;;;;;;;0.15;78.54;99232.97;348093;28;1034;-80
2023/03/12 00:23:29;;;;;;;11.27;6.63;;;;;;;0.12;78.37;99225.28;348053;28;1160;-79
2023/03/12 00:23:41;;;;;;;12.40;6.95;;;;;;;0.11;78.15;99226.16;348018;28;1480;-80
2023/03/12 00:23:53;;;;;;;12.27;6.85;;;;;;;0.11;78.29;99231.28;345791;28;1473;-79
2023/03/12 00:24:06;;;;;;;12.30;6.90;;;;;;;0.12;78.33;99232.97;347903;28;1266;-79
2023/03/12 00:24:19;;;;;;;11.40;6.82;;;;;;;0.11;78.11;99228.72;346708;28;1066;-79
2023/03/12 00:24:30;;;;;;;10.98;6.85;;;;;;;0.12;77.46;99227.84;346682;28;1229;-79
2023/03/12 00:24:42;;;;;;;11.55;7.05;;;;;;;0.11;77.86;99223.59;347090;28;736;-79
2023/03/12 00:24:55;;;;;;;11.27;6.72;;;;;;;0.13;77.89;99225.31;346545;28;1086;-79
2023/03/12 00:25:12;;;;;;;10.43;6.50;;;;;;;0.13;77.75;99224.47;346041;28;1201;-79
2023/03/12 00:25:24;;;;;;;11.50;6.55;;;;;;;0.13;78.03;99224.47;346654;28;1062;-79
2023/03/12 00:25:36;;;;;;;11.73;6.68;;;;;;;0.14;78.20;99227.03;346547;28;1058;-79
2023/03/12 00:25:48;;;;;;;12.30;6.70;;;;;;;0.12;77.37;99222.72;346098;28;1053;-79
2023/03/12 00:26:06;;;;;;;11.15;6.45;;;;;;;0.11;77.89;99226.16;346376;28;1178;-79
2023/03/12 00:26:20;;;;;;;11.60;6.80;;;;;;;0.10;77.71;99227.88;345043;28;1123;-80
2023/03/12 00:26:32;;;;;;;10.45;6.75;;;;;;;0.10;78.11;99221.88;344814;28;1087;-80
2023/03/12 00:26:44;;;;;;;9.52;6.22;;;;;;;0.10;78.14;99222.75;346106;28;1507;-80
2023/03/12 00:26:56;;;;;;;10.75;6.25;;;;;;;0.07;77.79;99227.00;346386;28;1254;-80
2023/03/12 00:27:07;;;;;;;11.50;6.47;;;;;;;0.09;78.20;99222.75;346378;28;1106;-79
2023/03/12 00:27:20;;;;;;;12.40;6.47;;;;;;;0.08;78.05;99231.25;346220;28;1435;-80
2023/03/12 00:27:32;;;;;;;11.52;6.60;;;;;;;0.04;77.90;99230.41;346736;28;1265;-80
2023/03/12 00:27:44;;;;;;;12.02;6.40;;;;;;;0.03;78.66;99230.41;346527;28;1149;-79
2023/03/12 00:27:56;;;;;;;13.02;6.50;;;;;;;0.01;77.98;99230.38;346762;28;1149;-79
2023/03/12 00:28:08;;;;;;;12.52;6.53;;;;;;;-0.01;78.15;99230.38;346778;28;1169;-79
2023/03/12 00:28:20;;;;;;;12.38;6.57;;;;;;;-0.02;78.75;99226.13;346052;28;1694;-79
2023/03/12 00:28:33;;;;;;;11.43;6.67;;;;;;;-0.01;78.54;99229.53;348041;28;904;-79
2023/03/12 00:28:47;;;;;;;11.35;6.47;;;;;;;-0.02;78.70;99221.00;347422;28;1173;-80
2023/03/12 00:28:59;;;;;;;12.45;6.55;;;;;;;-0.03;78.17;99219.28;346613;28;1245;-79
2023/03/12 00:29:11;;;;;;;11.38;6.40;;;;;;;-0.02;78.87;99222.69;346049;28;1779;-80
2023/03/12 00:29:22;;;;;;;9.73;6.13;;;;;;;-0.05;79.32;99223.53;346212;28;1982;-80
2023/03/12 00:29:34;;;;;;;9.75;6.20;;;;;;;-0.08;79.23;99226.09;344822;28;1580;-79
2023/03/12 00:29:47;;;;;;;10.57;6.35;;;;;;;-0.08;79.76;99226.09;343686;28;1259;-79
2023/03/12 00:29:59;;;;;;;12.45;6.57;;;;;;;-0.09;79.02;99224.38;343553;28;1188;-79
2023/03/12 00:30:11;;;;;;;12.52;6.47;;;;;;;-0.09;79.62;99221.81;342610;28;1055;-80
2023/03/12 00:30:23;;;;;;;13.32;6.20;;;;;;;-0.07;79.55;99227.78;342065;28;1726;-80
2023/03/12 00:30:35;;;;;;;12.68;6.10;;;;;;;-0.07;79.17;99225.25;342405;28;1412;-79
2023/03/12 00:30:47;;;;;;;14.32;6.28;;;;;;;-0.09;79.26;99224.38;341678;28;1039;-80
2023/03/12 00:31:00;;;;;;;14.20;6.68;;;;;;;-0.08;79.72;99221.00;342387;28;1150;-80
2023/03/12 00:31:21;;;;;;;14.20;7.05;;;;;;;-0.07;79.22;99216.72;342849;28;1063;-80
2023/03/12 00:31:33;;;;;;;10.85;6.07;;;;;;;-0.04;79.28;99226.94;343266;28;1492;-79
2023/03/12 00:31:45;;;;;;;10.05;5.82;;;;;;;-0.02;79.79;99226.13;345510;28;1084;-79
2023/03/12 00:31:57;;;;;;;10.68;6.22;;;;;;;-0.04;79.55;99221.84;345021;28;1060;-79
2023/03/12 00:32:09;;;;;;;11.00;6.35;;;;;;;-0.05;79.56;99223.53;344744;28;1043;-80
2023/03/12 00:32:22;;;;;;;11.93;6.05;;;;;;;-0.07;78.78;99225.25;343840;28;1078;-80
2023/03/12 00:32:35;;;;;;;11.60;5.90;;;;;;;-0.04;79.23;99219.28;342789;28;1544;-79
2023/03/12 00:32:47;;;;;;;10.70;6.00;;;;;;;-0.06;79.39;99224.41;342683;28;1227;-80
2023/03/12 00:32:59;;;;;;;9.82;6.05;;;;;;;-0.06;79.71;99224.41;344032;28;790;-79
2023/03/12 00:33:11;;;;;;;9.52;6.07;;;;;;;-0.07;79.29;99227.78;343703;28;1629;-80
2023/03/12 00:33:25;;;;;;;8.95;5.85;;;;;;;-0.09;79.08;99221.81;342722;28;1494;-80
2023/03/12 00:33:37;;;;;;;8.85;5.80;;;;;;;-0.07;79.27;99222.69;344092;28;1334;-79
2023/03/12 00:33:49;;;;;;;9.10;5.90;;;;;;;-0.07;79.30;99222.69;344897;28;1790;-79
2023/03/12 00:34:02;;;;;;;10.18;5.68;;;;;;;-0.04;78.98;99227.81;345872;28;1063;-80
2023/03/12 00:34:14;;;;;;;9.32;5.47;;;;;;;-0.03;79.54;99229.50;346818;28;841;-80
2023/03/12 00:34:26;;;;;;;8.25;5.18;;;;;;;-0.01;78.76;99217.59;346807;28;1200;-79
2023/03/12 00:34:38;;;;;;;8.05;5.50;;;;;;;0.01;79.19;99219.31;346090;28;1059;-80
2023/03/12 00:34:54;;;;;;;9.13;5.70;;;;;;;0.03;79.16;99222.72;345813;28;1573;-79
2023/03/12 00:35:07;;;;;;;9.70;5.45;;;;;;;0.04;79.26;99224.41;346289;28;1241;-80
2023/03/12 00:35:19;;;;;;;8.77;5.30;;;;;;;0.04;78.66;99221.88;346342;28;1265;-80
2023/03/12 00:35:31;;;;;;;9.60;5.32;;;;;;;0.05;78.46;99221.03;347567;28;1084;-80
2023/03/12 00:35:43;;;;;;;9.82;5.50;;;;;;;0.04;78.69;99222.75;346567;28;1094;-80
2023/03/12 00:35:59;;;;;;;9.60;5.50;;;;;;;0.05;78.03;99226.13;346269;28;1792;-80
2023/03/12 00:36:11;;;;;;;8.45;5.47;;;;;;;0.05;78.46;99221.03;346027;28;1195;-80
2023/03/12 00:36:26;;;;;;;8.05;5.32;;;;;;;0.07;78.37;99227.00;346118;28;1185;-80
2023/03/12 00:36:40;;;;;;;7.47;5.00;;;;;;;0.08;78.34;99221.03;346197;28;1479;-80
2023/03/12 00:36:52;;;;;;;8.05;5.03;;;;;;;0.06;79.16;99226.16;346278;28;1533;-80
2023/03/12 00:37:04;;;;;;;9.65;5.40;;;;;;;0.06;78.25;99222.72;346633;28;1289;-80
2023/03/12 00:37:16;;;;;;;9.73;5.57;;;;;;;0.04;78.42;99220.19;345655;28;1485;-80
2023/03/12 00:37:28;;;;;;;10.45;5.70;;;;;;;0.03;79.10;99225.28;345295;28;1117;-80
2023/03/12 00:37:40;;;;;;;10.35;5.50;;;;;;;0.01;78.66;99220.16;345018;28;1066;-80
2023/03/12 00:37:52;;;;;;;9.45;5.40;;;;;;;-0.02;78.43;99215.91;344933;28;1173;-80
2023/03/12 00:38:04;;;;;;;9.27;5.55;;;;;;;-0.03;78.26;99221.84;344900;28;1359;-80
2023/03/12 00:38:16;;;;;;;9.73;5.80;;;;;;;-0.04;79.17;99222.72;344915;28;1085;-80
2023/03/12 00:38:27;;;;;;;9.50;5.90;;;;;;;-0.03;79.08;99228.66;345916;28;1202;-80
2023/03/12 00:38:39;;;;;;;9.23;5.85;;;;;;;-0.03;79.08;99221.84;345348;28;1177;-80
2023/03/12 00:38:52;;;;;;;9.75;6.07;;;;;;;-0.04;78.91;99222.72;345220;28;1259;-80
2023/03/12 00:39:04;;;;;;;10.38;6.38;;;;;;;-0.06;78.61;99214.19;344177;28;1491;-80
2023/03/12 00:39:16;;;;;;;10.10;6.32;;;;;;;-0.08;78.91;99215.88;343610;28;773;-80
2023/03/12 00:39:28;;;;;;;9.73;6.25;;;;;;;-0.09;79.28;99228.66;345184;28;1677;-80
2023/03/12 00:39:40;;;;;;;10.25;6.30;;;;;;;-0.08;79.16;99223.56;347895;28;1094;-80
2023/03/12 00:39:52;;;;;;;10.17;6.33;;;;;;;-0.05;79.22;99221.00;344999;28;1163;-80
2023/03/12 00:40:07;;;;;;;8.93;6.00;;;;;;;-0.05;78.86;99223.53;344775;28;1086;-80
2023/03/12 00:40:19;;;;;;;8.82;5.80;;;;;;;-0.03;79.07;99221.84;343311;28;1696;-80
2023/03/12 00:40:31;;;;;;;10.85;6.03;;;;;;;-0.03;79.10;99218.44;343647;28;1167;-80
2023/03/12 00:40:43;;;;;;;11.27;6.07;;;;;;;-0.05;78.62;99218.44;343753;28;1186;-80
2023/03/12 00:40:55;;;;;;;12.05;6.30;;;;;;;-0.03;79.51;99213.34;344906;28;765;-80
2023/03/12 00:41:07;;;;;;;10.25;6.15;;;;;;;-0.03;79.21;99224.41;344157;28;1198;-80
2023/03/12 00:41:21;;;;;;;9.63;6.03;;;;;;;-0.06;79.63;99216.75;343461;28;1654;-80
2023/03/12 00:41:33;;;;;;;9.68;5.97;;;;;;;-0.04;79.66;99217.59;343697;28;1515;-80
2023/03/12 00:41:45;;;;;;;10.32;6.25;;;;;;;-0.04;79.55;99217.59;344174;28;1044;-80
2023/03/12 00:41:57;;;;;;;8.93;6.35;;;;;;;-0.04;79.58;99215.03;343684;28;1314;-80
2023/03/12 00:42:09;;;;;;;9.32;6.45;;;;;;;-0.04;79.11;99217.59;343055;28;1079;-80
2023/03/12 00:42:21;;;;;;;9.80;6.60;;;;;;;-0.06;79.53;99219.31;343674;28;1663;-80
2023/03/12 00:42:33;;;;;;;9.48;6.35;;;;;;;-0.06;79.58;99221.84;343971;28;1327;-80
2023/03/12 00:42:45;;;;;;;9.85;6.25;;;;;;;-0.06;80.03;99219.31;345033;28;1214;-80
2023/03/12 00:42:56;;;;;;;10.07;6.18;;;;;;;-0.07;79.71;99217.56;346740;28;748;-80
2023/03/12 00:43:08;;;;;;;11.45;6.30;;;;;;;-0.11;79.50;99215.84;346448;28;1042;-80
2023/03/12 00:43:20;;;;;;;11.77;6.38;;;;;;;-0.11;80.10;99220.97;345339;28;1627;-80
2023/03/12 00:43:32;;;;;;;11.85;6.43;;;;;;;-0.10;79.83;99222.69;346363;28;1145;-80
2023/03/12 00:43:46;;;;;;;10.93;6.53;;;;;;;-0.10;79.77;99222.69;344652;28;1824;-80
2023/03/12 00:43:58;;;;;;;11.20;6.60;;;;;;;-0.09;80.03;99219.28;343975;28;1038;-80
2023/03/12 00:44:10;;;;;;;10.80;6.47;;;;;;;-0.07;79.57;99216.72;344059;28;1101;-80
2023/03/12 00:44:22;;;;;;;10.02;6.03;;;;;;;-0.06;79.54;99219.31;344011;28;1110;-80
2023/03/12 00:44:34;;;;;;;9.10;6.00;;;;;;;-0.08;79.39;99215.88;343819;28;1524;-80
2023/03/12 00:44:46;;;;;;;11.88;6.63;;;;;;;-0.11;79.87;99223.53;345641;28;1238;-80
2023/03/12 00:44:58;;;;;;;12.85;6.68;;;;;;;-0.13;79.54;99216.72;345233;28;1147;-80
2023/03/12 00:45:10;;;;;;;11.75;6.47;;;;;;;-0.11;79.89;99220.97;344492;28;1158;-80
2023/03/12 00:45:22;;;;;;;12.05;6.30;;;;;;;-0.11;79.91;99215.84;343796;28;1134;-80
2023/03/12 00:45:34;;;;;;;11.77;6.43;;;;;;;-0.13;80.13;99217.56;343467;28;1112;-80
2023/03/12 00:45:46;;;;;;;11.30;6.70;;;;;;;-0.12;79.38;99213.28;342921;28;1086;-80
2023/03/12 00:45:58;;;;;;;10.60;6.63;;;;;;;-0.11;79.52;99218.41;345036;28;1095;-80
2023/03/12 00:46:10;;;;;;;12.38;6.95;;;;;;;-0.11;79.13;99210.75;345113;28;1097;-80
2023/03/12 00:46:22;;;;;;;13.93;7.07;;;;;;;-0.09;79.57;99219.28;345272;28;1099;-80
2023/03/12 00:46:34;;;;;;;14.23;6.60;;;;;;;-0.09;79.61;99219.28;344515;28;1227;-80
2023/03/12 00:46:46;;;;;;;13.60;6.47;;;;;;;-0.08;80.09;99215.88;343732;28;1131;-80
2023/03/12 00:46:58;;;;;;;10.73;6.57;;;;;;;-0.06;79.59;99219.31;343896;28;1103;-80
2023/03/12 00:47:11;;;;;;;10.40;6.40;;;;;;;-0.05;79.49;99215.88;345120;28;1123;-80
2023/03/12 00:47:23;;;;;;;11.18;6.35;;;;;;;-0.04;79.79;99215.03;345715;28;1063;-80
2023/03/12 00:47:35;;;;;;;12.45;6.60;;;;;;;-0.04;79.84;99211.63;345118;28;1207;-80
2023/03/12 00:47:47;;;;;;;12.40;6.88;;;;;;;-0.06;79.53;99214.19;345656;28;1566;-80
2023/03/12 00:47:59;;;;;;;11.15;6.70;;;;;;;-0.05;79.55;99218.44;344667;28;1191;-80
2023/03/12 00:48:11;;;;;;;11.88;6.65;;;;;;;-0.04;79.34;99217.59;343709;28;1155;-80
2023/03/12 00:48:23;;;;;;;11.80;6.80;;;;;;;-0.06;79.07;99214.19;343690;28;1066;-80
2023/03/12 00:48:35;;;;;;;13.52;7.05;;;;;;;-0.05;78.51;99215.88;342379;28;1043;-80
2023/03/12 00:48:47;;;;;;;13.07;6.80;;;;;;;-0.05;78.84;99220.16;342478;28;1394;-80
2023/03/12 00:48:59;;;;;;;11.35;6.40;;;;;;;-0.07;78.72;99215.03;343974;28;1111;-80
2023/03/12 00:49:11;;;;;;;10.35;6.40;;;;;;;-0.07;79.37;99217.56;343843;28;873;-80
2023/03/12 00:49:23;;;;;;;10.95;6.68;;;;;;;-0.06;79.26;99214.19;345217;28;1592;-80
2023/03/12 00:49:37;;;;;;;11.57;7.07;;;;;;;-0.09;79.16;99218.44;345099;28;1023;-80
2023/03/12 00:49:49;;;;;;;11.95;7.07;;;;;;;-0.10;79.19;99212.47;345525;28;1124;-80
2023/03/12 00:50:02;;;;;;;11.90;6.75;;;;;;;-0.12;79.38;99214.16;344279;28;1677;-80
2023/03/12 00:50:14;;;;;;;10.95;6.57;;;;;;;-0.12;78.93;99214.16;343221;28;1777;-80
2023/03/12 00:50:26;;;;;;;11.20;6.55;;;;;;;-0.13;79.19;99207.34;344627;28;1219;-80
2023/03/12 00:50:38;;;;;;;12.38;6.75;;;;;;;-0.11;79.19;99215.84;344503;28;1035;-80
2023/03/12 00:50:50;;;;;;;13.32;6.95;;;;;;;-0.08;79.25;99221.00;344954;28;4457;-80
2023/03/12 00:51:02;;;;;;;13.93;6.82;;;;;;;-0.05;78.74;99213.31;345010;28;1056;-80
2023/03/12 00:51:14;;;;;;;12.02;6.35;;;;;;;-0.04;79.04;99215.03;345193;28;1902;-80
2023/03/12 00:51:26;;;;;;;11.98;6.40;;;;;;;-0.03;78.59;99221.84;344111;28;1105;-80
2023/03/12 00:51:38;;;;;;;13.32;6.97;;;;;;;-0.03;78.70;99216.72;344039;28;1093;-80
2023/03/12 00:51:50;;;;;;;12.75;6.85;;;;;;;-0.02;78.32;99218.47;344947;28;1223;-80
2023/03/12 00:52:03;;;;;;;12.27;7.05;;;;;;;-0.02;78.22;99215.03;345686;28;732;-80
2023/03/12 00:52:15;;;;;;;12.07;7.20;;;;;;;-0.01;78.58;99217.59;343966;28;1070;-80
2023/03/12 00:52:27;;;;;;;12.02;7.13;;;;;;;-0.01;78.87;99217.59;343979;28;1934;-80
2023/03/12 00:52:39;;;;;;;11.75;6.90;;;;;;;0.01;78.52;99211.66;345508;28;1053;-80
2023/03/12 00:52:51;;;;;;;11.65;6.93;;;;;;;0.01;78.75;99219.31;344845;28;1179;-80
2023/03/12 00:53:03;;;;;;;13.60;7.68;;;;;;;-0.01;78.34;99222.72;343712;28;1066;-80
2023/03/12 00:53:15;;;;;;;14.15;7.93;;;;;;;-0.02;78.60;99215.91;343709;28;1095;-80
2023/03/12 00:53:27;;;;;;;12.82;7.65;;;;;;;-0.01;78.33;99215.03;343691;28;2077;-80
2023/03/12 00:53:39;;;;;;;12.85;7.57;;;;;;;-0.01;78.43;99217.59;343931;28;1285;-80
2023/03/12 00:53:51;;;;;;;13.70;7.75;;;;;;;0.02;78.64;99221.00;344056;28;1125;-80
2023/03/12 00:54:03;;;;;;;15.13;7.65;;;;;;;-0.03;78.15;99214.19;343026;28;1160;-80
2023/03/12 00:54:16;;;;;;;14.70;7.80;;;;;;;-0.05;78.25;99215.88;343875;28;1251;-80
2023/03/12 00:54:28;;;;;;;14.45;7.90;;;;;;;-0.08;78.54;99217.56;342624;28;1063;-80
2023/03/12 00:54:39;;;;;;;15.30;8.00;;;;;;;-0.08;78.84;99220.13;342840;28;1059;-80
2023/03/12 00:54:51;;;;;;;15.48;7.90;;;;;;;-0.11;78.05;99220.13;343678;28;1148;-80
2023/03/12 00:55:04;;;;;;;14.18;7.57;;;;;;;-0.13;78.20;99220.13;343880;28;1173;-80
2023/03/12 00:55:16;;;;;;;13.57;7.55;;;;;;;-0.13;78.58;99217.56;343589;28;1683;-80
2023/03/12 00:55:28;;;;;;;14.73;7.95;;;;;;;-0.11;78.58;99215.84;343399;28;1223;-80
2023/03/12 00:55:40;;;;;;;16.25;8.43;;;;;;;-0.09;78.17;99218.44;343282;28;1197;-80
2023/03/12 00:55:52;;;;;;;15.38;8.38;;;;;;;-0.09;78.26;99218.44;344391;28;1183;-80
2023/03/12 00:56:05;;;;;;;16.23;8.38;;;;;;;-0.08;78.96;99215.88;343775;28;1059;-80
2023/03/12 00:56:17;;;;;;;16.85;8.43;;;;;;;-0.07;78.66;99217.56;344851;28;1570;-80
2023/03/12 00:56:29;;;;;;;15.18;8.15;;;;;;;-0.05;78.69;99217.59;343650;28;1059;-80
2023/03/12 00:56:41;;;;;;;15.07;8.18;;;;;;;-0.04;78.56;99216.72;345213;28;1009;-80
2023/03/12 00:56:53;;;;;;;14.85;8.05;;;;;;;-0.06;78.55;99224.41;344633;28;1194;-80
2023/03/12 00:57:05;;;;;;;16.50;8.20;;;;;;;-0.05;78.87;99218.44;345207;28;1207;-80
2023/03/12 00:57:17;;;;;;;16.92;7.97;;;;;;;-0.04;78.42;99222.72;345231;28;1257;-80
2023/03/12 00:57:29;;;;;;;16.95;7.88;;;;;;;-0.03;78.40;99216.72;344892;28;1647;-80
2023/03/12 00:57:41;;;;;;;15.63;8.10;;;;;;;-0.03;78.52;99218.44;344036;28;1020;-79
2023/03/12 00:57:53;;;;;;;16.08;8.07;;;;;;;-0.03;78.00;99213.34;345163;28;1263;-80
2023/03/12 00:58:05;;;;;;;15.48;8.15;;;;;;;-0.03;77.55;99218.44;345177;28;1212;-80
2023/03/12 00:58:17;;;;;;;15.88;8.38;;;;;;;-0.01;78.09;99217.59;346135;28;1125;-80
2023/03/12 00:58:29;;;;;;;15.95;8.57;;;;;;;-0.06;77.86;99219.31;346438;28;1079;-80
2023/03/12 00:58:42;;;;;;;15.52;8.63;;;;;;;-0.03;78.12;99216.72;346351;28;1226;-80
2023/03/12 00:58:54;;;;;;;15.70;8.75;;;;;;;-0.06;78.41;99216.75;346821;28;1105;-80
2023/03/12 00:59:06;;;;;;;16.70;8.60;;;;;;;-0.06;77.89;99221.84;347853;28;1081;-80
2023/03/12 00:59:18;;;;;;;16.77;8.27;;;;;;;-0.06;78.24;99210.75;347252;28;1031;-80
2023/03/12 00:59:30;;;;;;;18.45;8.05;;;;;;;-0.04;77.53;99212.50;346497;28;1050;-80
2023/03/12 00:59:42;;;;;;;15.88;8.07;;;;;;;-0.04;77.85;99216.72;346080;28;1691;-80
2023/03/12 00:59:54;;;;;;;15.38;8.52;;;;;;;-0.05;78.00;99215.03;346839;28;1071;-80
2023/03/12 01:00:09;;;;;;;16.75;8.90;;;;;;;-0.04;77.68;99212.50;346578;28;1196;-80